Knott, Texas
Current Conditions -  °F | °C
As of 9:35 AM on Thursday 30 Oct 2014 (Local Time) from KBPG Reporting Station
Clear Clear  
Wind Chill: 64°   Ceiling: Unl
Heat Index: 64°   Visibility: 7mi
Dew Point: 60°   Wind: 9mph
Humidity: 89%   Direction: 170°S
Pressure: 30.16"   Gusts: NA
Location:  32.4°N, 101.64°W
Report Text: KBPG 301435Z AUTO 17008KT 7SM CLR 18/16 A3016 RMK AO2 T01760157
Loading
Personal Weather Stations






























Interactive Weather Map
Tropical Storm Tracking
New forecast layout! Learn more

10-Day Weather Forecast

Advertisements
Track Severe Weather on mobile